createdAt,value
2022-10-26T00:01:12.928Z,3.27
2022-10-26T00:03:42.707Z,3.20
2022-10-26T00:06:13.751Z,2.97
2022-10-26T00:08:41.282Z,3.10
2022-10-26T00:11:09.732Z,3.00
2022-10-26T00:13:37.577Z,3.03
2022-10-26T00:16:23.383Z,3.37
2022-10-26T00:18:50.636Z,3.40
2022-10-26T00:21:18.007Z,3.10
2022-10-26T00:23:44.848Z,3.27
2022-10-26T00:26:12.006Z,2.93
2022-10-26T00:28:38.856Z,2.60
2022-10-26T00:31:14.487Z,2.60
2022-10-26T00:33:42.008Z,3.03
2022-10-26T00:36:10.284Z,2.30
2022-10-26T00:38:38.171Z,2.87
2022-10-26T00:41:05.226Z,2.40
2022-10-26T00:43:31.859Z,2.40
2022-10-26T00:46:01.901Z,2.40
2022-10-26T00:48:40.088Z,2.40
2022-10-26T00:51:18.833Z,2.37
2022-10-26T00:53:46.175Z,1.90
2022-10-26T00:56:13.219Z,2.50
2022-10-26T00:58:41.365Z,2.20
2022-10-26T01:01:08.334Z,2.07
2022-10-26T01:03:37.949Z,3.00
2022-10-26T01:06:06.724Z,2.00
2022-10-26T01:08:34.187Z,1.93
2022-10-26T01:11:01.716Z,2.20
2022-10-26T01:13:33.829Z,2.10
2022-10-26T01:16:38.447Z,2.33
2022-10-26T01:19:21.804Z,1.93
2022-10-26T01:21:58.311Z,2.00
2022-10-26T01:25:12.336Z,1.77
2022-10-26T01:27:43.161Z,1.60
2022-10-26T01:30:20.543Z,2.10
2022-10-26T01:33:20.379Z,1.67
2022-10-26T01:36:10.930Z,2.00
2022-10-26T01:39:05.528Z,2.07
2022-10-26T01:41:59.489Z,2.20
2022-10-26T01:44:42.303Z,2.03
2022-10-26T01:47:15.844Z,2.23
2022-10-26T01:49:49.457Z,1.90
2022-10-26T01:52:19.663Z,2.13
2022-10-26T01:54:46.395Z,2.10
2022-10-26T01:57:18.924Z,2.00
2022-10-26T02:00:12.077Z,1.87
2022-10-26T02:03:20.271Z,1.90
2022-10-26T02:06:06.136Z,1.60
2022-10-26T02:08:47.160Z,1.80
2022-10-26T02:11:36.053Z,1.47
2022-10-26T02:17:09.808Z,1.80
2022-10-26T02:20:14.448Z,1.90
2022-10-26T02:22:51.224Z,1.80
2022-10-26T02:25:25.737Z,1.77
2022-10-26T02:28:00.181Z,2.30
2022-10-26T02:30:27.926Z,1.93
2022-10-26T02:32:57.995Z,1.90
2022-10-26T02:35:30.771Z,1.80
2022-10-26T02:38:02.490Z,1.70
2022-10-26T02:40:31.687Z,1.87
2022-10-26T02:43:05.474Z,2.00
2022-10-26T02:45:43.102Z,1.90
2022-10-26T02:48:10.483Z,1.67
2022-10-26T02:51:09.471Z,1.50
2022-10-26T02:53:45.726Z,1.90
2022-10-26T02:56:25.419Z,2.20
2022-10-26T02:58:59.621Z,1.90
2022-10-26T03:01:29.201Z,1.93
2022-10-26T03:03:59.875Z,1.70
2022-10-26T03:06:27.529Z,1.93
2022-10-26T03:08:54.377Z,2.10
2022-10-26T03:11:21.123Z,2.00
2022-10-26T03:13:47.820Z,2.00
2022-10-26T03:16:14.514Z,1.93
2022-10-26T03:18:41.318Z,2.03
2022-10-26T03:21:08.078Z,1.90
2022-10-26T03:23:34.787Z,1.70
2022-10-26T03:26:01.504Z,1.97
2022-10-26T03:28:28.195Z,1.60
2022-10-26T03:30:55.009Z,1.70
2022-10-26T03:33:25.532Z,1.60
2022-10-26T03:35:57.334Z,1.97
2022-10-26T03:38:24.456Z,1.93
2022-10-26T03:40:51.244Z,1.80
2022-10-26T03:43:18.122Z,1.90
2022-10-26T03:45:45.694Z,2.03
2022-10-26T03:48:12.568Z,2.10
2022-10-26T03:50:39.424Z,1.80
2022-10-26T03:53:07.289Z,1.60
2022-10-26T03:55:34.036Z,2.00
2022-10-26T03:58:00.742Z,2.10
2022-10-26T04:00:27.622Z,2.30
2022-10-26T04:03:00.098Z,2.87
2022-10-26T04:05:29.319Z,2.63
2022-10-26T04:08:00.110Z,2.67
2022-10-26T04:10:27.652Z,2.97
2022-10-26T04:12:55.596Z,3.40
2022-10-26T04:15:23.103Z,3.53
2022-10-26T04:17:57.258Z,3.60
2022-10-26T04:20:25.216Z,3.77
2022-10-26T04:23:05.166Z,3.60
2022-10-26T04:25:33.824Z,2.83
2022-10-26T04:28:03.413Z,3.00
2022-10-26T04:30:31.872Z,2.70
2022-10-26T04:32:58.553Z,2.43
2022-10-26T04:35:25.417Z,2.40
2022-10-26T04:37:57.386Z,2.60
2022-10-26T04:40:24.109Z,2.27
2022-10-26T04:42:51.178Z,2.07
2022-10-26T04:45:18.351Z,1.80
2022-10-26T04:47:45.114Z,1.80
2022-10-26T04:50:13.962Z,1.60
2022-10-26T04:52:41.213Z,1.70
2022-10-26T04:55:08.494Z,1.80
2022-10-26T04:57:36.200Z,1.60
2022-10-26T05:00:05.464Z,1.90
2022-10-26T05:02:32.263Z,1.87
2022-10-26T05:04:59.119Z,1.87
2022-10-26T05:07:26.089Z,1.70
2022-10-26T05:09:53.090Z,2.10
2022-10-26T05:12:20.251Z,1.80
2022-10-26T05:14:47.055Z,1.80
2022-10-26T05:17:13.976Z,2.00
2022-10-26T05:19:40.754Z,2.20
2022-10-26T05:22:07.725Z,2.03
2022-10-26T05:24:34.560Z,2.00
2022-10-26T05:27:01.359Z,2.00
2022-10-26T05:29:29.483Z,2.23
2022-10-26T05:31:56.181Z,2.00
2022-10-26T05:34:22.891Z,1.80
2022-10-26T05:36:52.467Z,1.90
2022-10-26T05:39:19.158Z,2.07
2022-10-26T05:41:45.843Z,2.00
2022-10-26T05:44:12.562Z,1.67
2022-10-26T05:46:39.308Z,1.87
2022-10-26T05:49:06.145Z,1.80
2022-10-26T05:51:34.450Z,1.90
2022-10-26T05:54:01.212Z,1.90
2022-10-26T05:56:36.604Z,1.70
2022-10-26T05:59:14.566Z,2.07
2022-10-26T06:02:09.405Z,1.50
2022-10-26T06:04:47.864Z,1.70
2022-10-26T06:07:20.755Z,1.83
2022-10-26T06:09:48.848Z,2.00
2022-10-26T06:12:19.292Z,1.83
2022-10-26T06:14:47.103Z,2.17
2022-10-26T06:17:39.326Z,2.20
2022-10-26T06:20:56.816Z,2.70
2022-10-26T06:23:51.681Z,2.37
2022-10-26T06:26:49.274Z,2.53
2022-10-26T06:29:49.918Z,2.13
2022-10-26T06:32:17.583Z,2.77
2022-10-26T06:34:49.300Z,2.40
2022-10-26T06:37:17.246Z,2.43
2022-10-26T06:39:50.029Z,2.50
2022-10-26T06:42:20.472Z,2.80
2022-10-26T06:44:47.658Z,2.60
2022-10-26T06:47:34.872Z,3.00
2022-10-26T06:50:22.874Z,2.83
2022-10-26T06:53:03.818Z,2.50
2022-10-26T06:55:43.469Z,3.03
2022-10-26T06:58:17.137Z,2.47
2022-10-26T07:00:48.006Z,2.27
2022-10-26T07:03:14.729Z,2.50
2022-10-26T07:05:43.337Z,2.23
2022-10-26T07:08:10.889Z,2.23
2022-10-26T07:10:39.106Z,2.30
2022-10-26T07:13:06.821Z,2.27
2022-10-26T07:15:35.802Z,1.90
2022-10-26T07:18:07.689Z,2.13
2022-10-26T07:20:40.586Z,2.30
2022-10-26T07:23:12.437Z,2.00
2022-10-26T07:25:40.519Z,2.37
2022-10-26T07:28:10.179Z,2.17
2022-10-26T07:30:39.221Z,2.00
2022-10-26T07:33:14.412Z,2.57
2022-10-26T07:35:41.298Z,2.57
2022-10-26T07:38:08.629Z,2.23
2022-10-26T07:40:38.003Z,2.40
2022-10-26T07:43:05.291Z,2.03
2022-10-26T07:45:32.210Z,2.40
2022-10-26T07:47:58.942Z,2.37
2022-10-26T07:50:26.121Z,2.40
2022-10-26T07:52:53.106Z,2.60
2022-10-26T07:55:20.447Z,2.03
2022-10-26T07:57:49.783Z,2.20
2022-10-26T08:00:21.617Z,2.33
2022-10-26T08:02:48.341Z,2.30
2022-10-26T08:05:15.106Z,2.13
2022-10-26T08:07:44.682Z,2.40
2022-10-26T08:10:12.792Z,2.40
2022-10-26T08:12:40.428Z,2.87
2022-10-26T08:15:08.579Z,2.57
2022-10-26T08:17:35.462Z,2.10
2022-10-26T08:20:02.269Z,2.20
2022-10-26T08:22:30.659Z,2.03
2022-10-26T08:24:57.489Z,2.50
2022-10-26T08:27:24.175Z,2.50
2022-10-26T08:29:50.882Z,2.60
2022-10-26T08:32:17.612Z,2.50
2022-10-26T08:34:44.307Z,2.30
2022-10-26T08:37:11.048Z,2.30
2022-10-26T08:39:37.773Z,2.03
2022-10-26T08:42:14.580Z,2.10
2022-10-26T08:44:58.174Z,2.10
2022-10-26T08:47:43.019Z,2.30
2022-10-26T08:50:25.156Z,2.40
2022-10-26T08:53:38.851Z,2.33
2022-10-26T08:56:23.617Z,1.87
2022-10-26T08:59:01.232Z,2.40
2022-10-26T09:01:31.893Z,2.07
2022-10-26T09:07:00.258Z,1.90
2022-10-26T09:09:47.406Z,2.20
2022-10-26T09:13:02.680Z,2.23
2022-10-26T09:16:13.442Z,2.37
2022-10-26T09:19:02.788Z,2.30
2022-10-26T09:21:44.880Z,2.03
2022-10-26T09:24:28.517Z,2.10
2022-10-26T09:27:28.614Z,1.73
2022-10-26T09:29:59.572Z,2.10
2022-10-26T09:32:45.065Z,2.23
2022-10-26T09:38:50.463Z,2.13
2022-10-26T09:41:49.915Z,2.47
2022-10-26T09:44:29.969Z,2.43
2022-10-26T09:47:31.657Z,2.33
2022-10-26T09:50:39.411Z,2.20
2022-10-26T09:53:06.412Z,2.53
2022-10-26T09:55:41.318Z,2.13
2022-10-26T09:58:26.807Z,2.20
2022-10-26T10:00:54.868Z,2.23
2022-10-26T10:03:28.322Z,2.13
2022-10-26T10:06:20.295Z,2.60
2022-10-26T10:09:13.925Z,2.30
2022-10-26T10:11:43.915Z,2.40
2022-10-26T10:14:17.700Z,2.23
2022-10-26T10:16:54.593Z,2.23
2022-10-26T10:19:28.526Z,3.30
2022-10-26T10:22:08.178Z,3.20
2022-10-26T10:24:42.861Z,2.40
2022-10-26T10:27:18.476Z,2.60
2022-10-26T10:29:49.800Z,2.30
2022-10-26T10:32:20.683Z,2.10
2022-10-26T10:34:52.459Z,2.43
2022-10-26T10:37:44.267Z,2.00
2022-10-26T10:40:24.470Z,1.87
2022-10-26T10:43:01.268Z,2.17
2022-10-26T10:45:30.884Z,2.37
2022-10-26T10:48:12.734Z,2.13
2022-10-26T10:51:12.957Z,2.17
2022-10-26T10:53:56.847Z,2.33
2022-10-26T10:56:48.864Z,2.43
2022-10-26T10:59:49.805Z,2.03
2022-10-26T11:03:04.268Z,1.77
2022-10-26T11:05:56.942Z,1.73
2022-10-26T11:08:32.371Z,1.83
2022-10-26T11:11:22.945Z,2.27
2022-10-26T11:13:55.073Z,1.63
2022-10-26T11:16:33.285Z,2.27
2022-10-26T11:19:17.595Z,2.30
2022-10-26T11:21:50.864Z,2.37
2022-10-26T11:24:31.738Z,2.43
2022-10-26T11:27:36.663Z,1.90
2022-10-26T11:30:07.644Z,2.20
2022-10-26T11:32:47.463Z,2.40
2022-10-26T11:35:29.030Z,2.10
2022-10-26T11:38:20.743Z,2.07
2022-10-26T11:41:10.037Z,2.17
2022-10-26T11:43:56.436Z,2.17
2022-10-26T11:46:55.390Z,2.27
2022-10-26T11:49:50.331Z,2.40
2022-10-26T11:52:30.222Z,2.70
2022-10-26T11:55:04.642Z,2.37
2022-10-26T11:57:37.534Z,2.17
2022-10-26T12:00:18.955Z,2.53
2022-10-26T12:03:27.700Z,1.93
2022-10-26T12:05:54.715Z,2.37
2022-10-26T12:08:41.841Z,2.67
2022-10-26T12:11:36.003Z,2.23
2022-10-26T12:14:12.850Z,2.33
2022-10-26T12:16:56.355Z,2.30
2022-10-26T12:19:44.060Z,2.30
2022-10-26T12:22:17.279Z,2.47
2022-10-26T12:25:20.450Z,2.23
2022-10-26T12:30:34.463Z,2.23
2022-10-26T12:33:06.578Z,2.40
2022-10-26T12:35:44.768Z,2.10
2022-10-26T12:38:33.799Z,2.20
2022-10-26T12:41:07.345Z,2.20
2022-10-26T12:43:40.979Z,2.13
2022-10-26T12:46:13.667Z,2.30
2022-10-26T12:48:48.107Z,2.57
2022-10-26T12:51:24.547Z,2.07
2022-10-26T12:54:10.622Z,2.33
2022-10-26T12:57:05.679Z,1.70
2022-10-26T13:00:02.939Z,2.00
2022-10-26T13:03:07.555Z,2.10
2022-10-26T13:06:38.225Z,2.00
2022-10-26T13:09:19.834Z,2.30
2022-10-26T13:11:52.475Z,2.47
2022-10-26T13:14:26.711Z,2.57
2022-10-26T13:16:54.052Z,2.53
2022-10-26T13:19:37.128Z,1.97
2022-10-26T13:22:04.170Z,2.20
2022-10-26T13:24:34.877Z,2.33
2022-10-26T13:27:08.054Z,2.33
2022-10-26T13:30:03.817Z,1.90
2022-10-26T13:32:35.430Z,2.27
2022-10-26T13:35:05.221Z,2.10
2022-10-26T13:37:35.315Z,2.23
2022-10-26T13:40:06.464Z,1.87
2022-10-26T13:42:47.733Z,2.20
2022-10-26T13:45:25.418Z,1.90
2022-10-26T13:48:37.724Z,2.10
2022-10-26T13:51:25.910Z,2.17
2022-10-26T13:54:03.178Z,2.00
2022-10-26T13:56:41.316Z,2.20
2022-10-26T13:59:13.740Z,2.07
2022-10-26T14:01:40.538Z,2.17
2022-10-26T14:04:25.176Z,1.67
2022-10-26T14:06:54.592Z,1.40
2022-10-26T14:09:23.007Z,2.60
2022-10-26T14:11:55.358Z,1.73
2022-10-26T14:14:27.201Z,1.60
2022-10-26T14:16:55.018Z,1.60
2022-10-26T14:19:29.823Z,1.70
2022-10-26T14:21:58.322Z,1.53
2022-10-26T14:24:46.964Z,1.43
2022-10-26T14:27:38.439Z,1.40
2022-10-26T14:30:27.334Z,1.80
2022-10-26T14:32:54.838Z,2.07
2022-10-26T14:35:33.423Z,1.37
2022-10-26T14:38:17.131Z,1.93
2022-10-26T14:40:45.028Z,2.03
2022-10-26T14:43:21.407Z,1.97
2022-10-26T14:45:51.440Z,1.93
2022-10-26T14:48:36.523Z,1.60
2022-10-26T14:51:17.914Z,2.10
2022-10-26T14:53:51.352Z,1.80
2022-10-26T14:56:36.054Z,2.10
2022-10-26T14:59:26.244Z,1.70
2022-10-26T15:02:15.981Z,1.73
2022-10-26T15:05:02.833Z,1.90
2022-10-26T15:07:38.079Z,1.53
2022-10-26T15:10:06.030Z,1.70
2022-10-26T15:12:37.686Z,1.40
2022-10-26T15:15:17.587Z,1.50
2022-10-26T15:18:05.031Z,1.60
2022-10-26T15:20:31.997Z,1.70
2022-10-26T15:23:03.918Z,1.83
2022-10-26T15:25:34.365Z,1.67
2022-10-26T15:28:31.049Z,1.60
2022-10-26T15:31:29.030Z,1.97
2022-10-26T15:33:55.637Z,2.00
2022-10-26T15:36:27.111Z,1.80
2022-10-26T15:38:55.471Z,2.10
2022-10-26T15:41:26.355Z,2.13
2022-10-26T15:43:56.627Z,1.70
2022-10-26T15:46:27.270Z,2.13
2022-10-26T15:49:00.534Z,2.23
2022-10-26T15:51:29.872Z,1.87
2022-10-26T15:54:04.201Z,2.37
2022-10-26T15:56:31.807Z,1.83
2022-10-26T15:58:59.152Z,2.00
2022-10-26T16:01:29.333Z,2.13
2022-10-26T16:03:56.464Z,2.00
2022-10-26T16:06:35.222Z,2.17
2022-10-26T16:09:05.601Z,2.30
2022-10-26T16:11:33.305Z,2.57
2022-10-26T16:14:02.856Z,2.00
2022-10-26T16:16:31.249Z,2.20
2022-10-26T16:19:18.314Z,2.70
2022-10-26T16:21:44.932Z,2.63
2022-10-26T16:24:11.648Z,2.47
2022-10-26T16:26:38.439Z,2.27
2022-10-26T16:29:05.163Z,2.60
2022-10-26T16:31:31.854Z,2.50
2022-10-26T16:34:01.676Z,2.57
2022-10-26T16:36:33.961Z,3.10
2022-10-26T16:41:33.070Z,3.17
2022-10-26T16:43:59.821Z,2.70
2022-10-26T16:46:26.772Z,2.97
2022-10-26T16:48:53.467Z,3.07
2022-10-26T16:51:24.401Z,3.00
2022-10-26T16:53:53.930Z,2.93
2022-10-26T16:56:28.238Z,3.53
2022-10-26T16:58:55.033Z,3.40
2022-10-26T17:01:22.212Z,4.00
2022-10-26T17:03:51.057Z,3.70
2022-10-26T17:06:18.818Z,4.70
2022-10-26T17:08:45.879Z,4.80
2022-10-26T17:11:17.351Z,4.40
2022-10-26T17:13:44.617Z,4.33
2022-10-26T17:16:19.008Z,4.30
2022-10-26T17:18:47.201Z,4.87
2022-10-26T17:21:16.350Z,4.67
2022-10-26T17:23:43.295Z,4.37
2022-10-26T17:26:13.550Z,4.67
2022-10-26T17:28:40.325Z,4.90
2022-10-26T17:31:15.210Z,5.10
2022-10-26T17:33:44.946Z,5.13
2022-10-26T17:36:13.564Z,5.73
2022-10-26T17:38:42.691Z,6.00
2022-10-26T17:41:13.222Z,5.40
2022-10-26T17:43:41.611Z,5.90
2022-10-26T17:46:13.802Z,6.27
2022-10-26T17:48:40.810Z,5.83
2022-10-26T17:51:13.508Z,5.57
2022-10-26T17:53:59.461Z,6.20
2022-10-26T17:56:30.110Z,5.30
2022-10-26T17:59:03.207Z,5.60
2022-10-26T18:01:31.678Z,5.73
2022-10-26T18:03:59.453Z,4.90
2022-10-26T18:06:26.424Z,4.57
2022-10-26T18:08:53.161Z,4.60
2022-10-26T18:11:26.863Z,4.73
2022-10-26T18:13:56.484Z,5.20
2022-10-26T18:16:25.731Z,4.50
2022-10-26T18:19:02.085Z,4.10
2022-10-26T18:21:32.846Z,4.13
2022-10-26T18:23:59.749Z,3.57
2022-10-26T18:26:29.887Z,3.40
2022-10-26T18:28:58.513Z,3.60
2022-10-26T18:31:28.144Z,2.87
2022-10-26T18:34:01.307Z,2.93
2022-10-26T18:36:29.551Z,3.00
2022-10-26T18:38:56.423Z,3.50
2022-10-26T18:41:25.357Z,2.97
2022-10-26T18:43:54.949Z,2.80
2022-10-26T18:46:25.206Z,2.80
2022-10-26T18:48:53.157Z,2.77
2022-10-26T18:51:28.555Z,2.63
2022-10-26T18:53:57.497Z,2.63
2022-10-26T18:56:25.250Z,3.17
2022-10-26T18:58:56.958Z,3.17
2022-10-26T19:01:30.741Z,2.40
2022-10-26T19:04:07.389Z,2.43
2022-10-26T19:06:40.771Z,2.50
2022-10-26T19:09:09.937Z,3.40
2022-10-26T19:11:37.764Z,3.63
2022-10-26T19:14:05.210Z,4.27
2022-10-26T19:16:45.251Z,4.30
2022-10-26T19:19:14.547Z,5.30
2022-10-26T19:21:41.311Z,4.53
2022-10-26T19:24:17.075Z,4.37
2022-10-26T19:26:45.632Z,4.60
2022-10-26T19:29:16.133Z,4.50
2022-10-26T19:31:45.668Z,4.00
2022-10-26T19:34:15.278Z,4.27
2022-10-26T19:36:44.723Z,3.87
2022-10-26T19:39:16.909Z,3.87
2022-10-26T19:41:45.530Z,4.00
2022-10-26T19:44:13.919Z,4.50
2022-10-26T19:46:43.219Z,4.00
2022-10-26T19:49:09.972Z,4.10
2022-10-26T19:51:36.746Z,3.80
2022-10-26T19:54:05.871Z,4.60
2022-10-26T19:56:34.242Z,3.57
2022-10-26T19:59:01.477Z,3.70
2022-10-26T20:01:28.660Z,3.60
2022-10-26T20:03:55.548Z,3.40
2022-10-26T20:06:22.270Z,3.53
2022-10-26T20:08:50.071Z,2.90
2022-10-26T20:11:18.438Z,2.87
2022-10-26T20:13:47.321Z,2.90
2022-10-26T20:16:16.345Z,2.73
2022-10-26T20:18:47.664Z,3.20
2022-10-26T20:21:16.863Z,3.37
2022-10-26T20:23:44.858Z,2.97
2022-10-26T20:26:19.608Z,3.80
2022-10-26T20:28:51.361Z,3.00
2022-10-26T20:31:18.423Z,2.23
2022-10-26T20:33:45.172Z,2.70
2022-10-26T20:36:11.934Z,2.60
2022-10-26T20:38:39.860Z,2.37
2022-10-26T20:41:14.591Z,2.37
2022-10-26T20:43:41.978Z,4.07
2022-10-26T20:46:28.209Z,3.10
2022-10-26T20:48:55.411Z,2.90
2022-10-26T20:51:56.771Z,3.10
2022-10-26T20:54:41.343Z,3.87
2022-10-26T20:57:15.501Z,3.53
2022-10-26T20:59:53.705Z,3.60
2022-10-26T21:02:22.147Z,4.10
2022-10-26T21:04:48.976Z,4.03
2022-10-26T21:07:15.672Z,3.77
2022-10-26T21:09:42.526Z,4.33
2022-10-26T21:12:09.250Z,3.93
2022-10-26T21:14:40.497Z,3.50
2022-10-26T21:17:08.552Z,3.97
2022-10-26T21:19:35.522Z,3.43
2022-10-26T21:22:02.536Z,4.07
2022-10-26T21:24:29.289Z,3.33
2022-10-26T21:26:56.080Z,3.53
2022-10-26T21:29:22.815Z,3.30
2022-10-26T21:31:49.512Z,3.47
2022-10-26T21:34:16.202Z,4.40
2022-10-26T21:36:43.079Z,3.83
2022-10-26T21:39:11.099Z,4.00
2022-10-26T21:41:38.037Z,4.20
2022-10-26T21:44:09.334Z,3.67
2022-10-26T21:46:38.489Z,3.40
2022-10-26T21:49:06.228Z,3.40
2022-10-26T21:51:34.842Z,3.57
2022-10-26T21:54:01.889Z,3.30
2022-10-26T21:56:28.589Z,4.03
2022-10-26T21:58:55.291Z,3.83
2022-10-26T22:01:23.271Z,3.50
2022-10-26T22:03:50.227Z,3.60
2022-10-26T22:08:51.647Z,3.50
2022-10-26T22:11:24.455Z,3.70
2022-10-26T22:13:52.369Z,3.97
2022-10-26T22:16:28.826Z,3.70
2022-10-26T22:18:59.190Z,3.57
2022-10-26T22:21:27.429Z,3.33
2022-10-26T22:23:54.808Z,3.20
2022-10-26T22:26:24.580Z,3.20
2022-10-26T22:28:55.145Z,3.13
2022-10-26T22:34:04.779Z,2.90
2022-10-26T22:36:34.560Z,3.00
2022-10-26T22:39:01.387Z,3.00
2022-10-26T22:41:28.133Z,2.93
2022-10-26T22:43:54.826Z,2.80
2022-10-26T22:46:27.685Z,2.97
2022-10-26T22:48:58.052Z,2.90
2022-10-26T22:51:27.278Z,3.20
2022-10-26T22:53:57.208Z,3.03
2022-10-26T22:58:54.263Z,3.07
2022-10-26T23:01:25.460Z,2.80
2022-10-26T23:03:55.972Z,2.50
2022-10-26T23:06:27.150Z,2.77
2022-10-26T23:08:54.034Z,2.80
2022-10-26T23:11:25.241Z,2.83
2022-10-26T23:13:57.011Z,2.93
2022-10-26T23:16:24.251Z,2.47
2022-10-26T23:18:53.289Z,2.60
2022-10-26T23:21:22.475Z,3.17
2022-10-26T23:23:49.254Z,3.23
2022-10-26T23:26:19.206Z,2.50
2022-10-26T23:28:46.249Z,2.70
2022-10-26T23:31:20.034Z,2.70
2022-10-26T23:33:49.587Z,2.50
2022-10-26T23:36:16.399Z,2.57
2022-10-26T23:38:43.127Z,2.43
2022-10-26T23:41:12.797Z,2.87
2022-10-26T23:43:40.530Z,2.43
2022-10-26T23:46:07.523Z,2.40
2022-10-26T23:48:34.459Z,2.83
2022-10-26T23:51:01.192Z,2.70
2022-10-26T23:53:28.011Z,2.50
2022-10-26T23:55:54.857Z,2.73
2022-10-26T23:58:21.593Z,2.60
